Amantha, North Carolina
Current Conditions -  °F | °C
As of 6:15 PM on Tuesday 25 Nov 2014 (Local Time) from KTNB Reporting Station
Clear Clear  
Wind Chill:   Ceiling: Unl
Heat Index:   Visibility: 10mi
Dew Point: -6°   Wind: 0mph
Humidity: 46%   Direction: NA
Pressure: 30.07"   Gusts: NA
Location:  36.2666°N, 81.8431°W
Report Text: KTNB 252315Z AUTO 00000KT 10SM CLR 05/M06 A3007 RMK AO2 T00511057
Loading
Personal Weather Stations






























Interactive Weather Map New forecast layout! Learn more

10-Day Weather Forecast

Advertisements
Track Severe Weather on mobile